Time;durP1;ratioP1;P1;durP2;ratioP2;P2;SDS_P1;SDS_P2;PMS_P1;PMS_P2;Temp;Humidity;BMP_temperature;BMP_pressure;BME280_temperature;BME280_humidity;BME280_pressure;Samples;Min_cycle;Max_cycle;Signal;HPM_P1;HPM_P2
2022/03/05 00:00:43;;;;;;;247.93;116.38;;;1.90;99.90;;;;;;5054800;28;20032;-53
2022/03/05 00:03:11;;;;;;;239.63;112.55;;;1.90;99.90;;;;;;5055303;28;20044;-53
2022/03/05 00:05:38;;;;;;;254.13;114.93;;;1.90;99.90;;;;;;5054691;28;20024;-53
2022/03/05 00:08:06;;;;;;;247.30;112.40;;;1.90;99.90;;;;;;5054727;28;20604;-53
2022/03/05 00:10:39;;;;;;;220.65;105.97;;;2.00;99.90;;;;;;5054620;28;20017;-53
2022/03/05 00:13:05;;;;;;;188.18;94.68;;;2.00;99.90;;;;;;5054500;28;20029;-53
2022/03/05 00:15:32;;;;;;;174.57;88.18;;;2.10;99.90;;;;;;5054573;28;20120;-53
2022/03/05 00:17:59;;;;;;;176.63;84.15;;;2.20;99.90;;;;;;5054018;28;20037;-53
2022/03/05 00:20:26;;;;;;;170.93;84.13;;;2.10;99.90;;;;;;5054584;28;20032;-53
2022/03/05 00:22:56;;;;;;;179.07;88.50;;;2.00;99.90;;;;;;5054295;28;20065;-53
2022/03/05 00:25:24;;;;;;;181.80;92.30;;;1.90;99.90;;;;;;5066201;28;20060;-53
2022/03/05 00:27:52;;;;;;;218.27;103.95;;;1.80;99.90;;;;;;5074436;28;20028;-53
2022/03/05 00:30:18;;;;;;;205.52;99.38;;;2.00;99.90;;;;;;5074529;28;20104;-53
2022/03/05 00:32:48;;;;;;;207.27;97.93;;;2.10;99.90;;;;;;5074356;28;20590;-53
2022/03/05 00:35:15;;;;;;;196.40;97.80;;;2.10;99.90;;;;;;5074349;28;20029;-53
2022/03/05 00:37:41;;;;;;;210.32;102.90;;;2.10;99.90;;;;;;5074380;28;20135;-53
2022/03/05 00:40:11;;;;;;;190.68;96.63;;;2.10;99.90;;;;;;5073963;28;20036;-53
2022/03/05 00:42:37;;;;;;;195.48;96.53;;;2.10;99.90;;;;;;5074187;28;20401;-53
2022/03/05 00:45:08;;;;;;;205.20;100.43;;;2.20;99.90;;;;;;5074399;28;20374;-53
2022/03/05 00:47:38;;;;;;;185.88;90.45;;;2.10;99.90;;;;;;5074195;28;20025;-53
2022/03/05 00:50:06;;;;;;;194.40;94.72;;;2.00;99.90;;;;;;5074200;28;20079;-53
2022/03/05 00:52:34;;;;;;;183.10;89.93;;;2.10;99.90;;;;;;5074278;28;20504;-53
2022/03/05 00:55:00;;;;;;;162.52;82.53;;;2.10;99.90;;;;;;5074024;28;20382;-53
2022/03/05 00:57:26;;;;;;;170.98;84.25;;;2.10;99.90;;;;;;5074183;28;20064;-53
2022/03/05 00:59:52;;;;;;;175.27;87.50;;;2.00;99.90;;;;;;5074227;28;20347;-53
2022/03/05 01:02:18;;;;;;;174.82;87.63;;;2.00;99.90;;;;;;5078148;28;20051;-53
2022/03/05 01:04:44;;;;;;;181.80;89.95;;;1.90;99.90;;;;;;5078141;28;20078;-53
2022/03/05 01:07:10;;;;;;;187.23;92.53;;;2.00;99.90;;;;;;5078089;28;20466;-53
2022/03/05 01:09:36;;;;;;;190.68;93.03;;;2.00;99.90;;;;;;5077980;28;20474;-53
2022/03/05 01:12:05;;;;;;;190.27;94.13;;;2.00;99.90;;;;;;5077698;28;20032;-53
2022/03/05 01:14:32;;;;;;;197.02;98.85;;;2.10;99.90;;;;;;5078303;28;20034;-53
2022/03/05 01:16:58;;;;;;;190.10;94.63;;;2.10;99.90;;;;;;5077991;28;20025;-53
2022/03/05 01:19:24;;;;;;;194.40;96.63;;;2.00;99.90;;;;;;5077764;28;20031;-53
2022/03/05 01:21:50;;;;;;;196.25;96.35;;;2.10;99.90;;;;;;5077482;28;20044;-53
2022/03/05 01:24:17;;;;;;;197.45;96.18;;;2.00;99.90;;;;;;5077684;28;20052;-53
2022/03/05 01:26:43;;;;;;;201.40;96.03;;;2.00;99.90;;;;;;5077760;28;20028;-53
2022/03/05 01:29:09;;;;;;;193.40;98.03;;;2.10;99.90;;;;;;5077831;28;20478;-53
2022/03/05 01:31:36;;;;;;;189.40;93.88;;;2.00;99.90;;;;;;5077562;28;20029;-53
2022/03/05 01:34:02;;;;;;;196.43;97.53;;;2.00;99.90;;;;;;5077530;28;20466;-53
2022/03/05 01:36:28;;;;;;;213.05;103.03;;;2.00;99.90;;;;;;5077623;28;20462;-53
2022/03/05 01:38:54;;;;;;;219.23;104.47;;;1.90;99.90;;;;;;5077455;28;20055;-53
2022/03/05 01:41:20;;;;;;;221.40;106.22;;;1.90;99.90;;;;;;5077536;28;20032;-53
2022/03/05 01:43:53;;;;;;;217.98;105.78;;;1.90;99.90;;;;;;5077198;28;20055;-53
2022/03/05 01:46:34;;;;;;;240.60;115.00;;;2.00;99.90;;;;;;5077317;28;20025;-53
2022/03/05 01:49:01;;;;;;;;;;;1.90;99.90;;;;;;5077971;28;20028;-53
2022/03/05 01:51:27;;;;;;;223.00;104.40;;;1.80;99.90;;;;;;5077398;28;19963;-53
2022/03/05 01:53:53;;;;;;;222.68;107.13;;;1.80;99.90;;;;;;5077200;28;20024;-53
2022/03/05 01:56:21;;;;;;;220.10;105.65;;;1.80;99.90;;;;;;5077267;28;20059;-53
2022/03/05 01:58:48;;;;;;;220.77;109.22;;;1.80;99.90;;;;;;5076959;28;20086;-53
2022/03/05 02:01:14;;;;;;;216.32;103.10;;;1.90;99.90;;;;;;5077414;28;20040;-53
2022/03/05 02:03:41;;;;;;;221.25;106.70;;;1.80;99.90;;;;;;5059143;28;20071;-53
2022/03/05 02:06:07;;;;;;;212.20;104.15;;;1.60;99.90;;;;;;5076883;28;20055;-53
2022/03/05 02:08:33;;;;;;;214.88;104.00;;;1.70;99.90;;;;;;5077046;28;20055;-53
2022/03/05 02:10:59;;;;;;;223.52;107.25;;;1.70;99.90;;;;;;5076587;28;20056;-53
2022/03/05 02:13:27;;;;;;;225.27;109.15;;;1.60;99.90;;;;;;5076913;28;20032;-53
2022/03/05 02:15:55;;;;;;;227.88;110.22;;;1.60;99.90;;;;;;5076957;28;20052;-53
2022/03/05 02:18:22;;;;;;;219.00;105.82;;;1.60;99.90;;;;;;5076831;28;20119;-53
2022/03/05 02:20:53;;;;;;;229.65;112.72;;;1.60;99.90;;;;;;5076812;28;20067;-53
2022/03/05 02:23:19;;;;;;;217.43;107.93;;;1.60;99.90;;;;;;5076488;28;20032;-53
2022/03/05 02:26:07;;;;;;;232.13;112.25;;;1.50;99.90;;;;;;5076721;28;20064;-53
2022/03/05 02:28:35;;;;;;;225.10;105.47;;;1.60;99.90;;;;;;5076743;28;20025;-53
2022/03/05 02:31:06;;;;;;;244.55;110.18;;;1.60;99.90;;;;;;5076826;28;20031;-53
2022/03/05 02:33:32;;;;;;;242.30;110.82;;;1.60;99.90;;;;;;5076882;28;20029;-53
2022/03/05 02:35:58;;;;;;;225.88;108.97;;;1.60;99.90;;;;;;5076555;28;20447;-53
2022/03/05 02:38:25;;;;;;;229.77;108.95;;;1.50;99.90;;;;;;5076605;28;20155;-53
2022/03/05 02:40:52;;;;;;;219.57;105.63;;;1.50;99.90;;;;;;5076361;28;20032;-53
2022/03/05 02:43:19;;;;;;;224.00;107.38;;;1.40;99.90;;;;;;5076408;28;20025;-53
2022/03/05 02:45:45;;;;;;;208.93;103.07;;;1.40;99.90;;;;;;5076620;28;20024;-53
2022/03/05 02:48:14;;;;;;;223.73;109.40;;;1.20;99.90;;;;;;5076152;28;20036;-53
2022/03/05 02:50:42;;;;;;;222.25;108.95;;;1.20;99.90;;;;;;5076286;28;20326;-53
2022/03/05 02:53:09;;;;;;;226.02;108.03;;;1.20;99.90;;;;;;5076092;28;20039;-53
2022/03/05 02:55:35;;;;;;;214.63;104.57;;;1.20;99.90;;;;;;5058374;28;20029;-53
2022/03/05 02:58:02;;;;;;;216.55;106.30;;;1.20;99.90;;;;;;5076243;28;20466;-53
2022/03/05 03:00:28;;;;;;;243.93;110.13;;;1.20;99.90;;;;;;5076019;28;20036;-53
2022/03/05 03:02:54;;;;;;;223.10;109.13;;;1.20;99.90;;;;;;5075899;28;20039;-53
2022/03/05 03:05:21;;;;;;;214.77;101.45;;;1.20;99.90;;;;;;5076038;28;20131;-53
2022/03/05 03:07:48;;;;;;;213.25;104.78;;;1.10;99.90;;;;;;5075660;28;20029;-53
2022/03/05 03:10:15;;;;;;;211.25;99.45;;;1.10;99.90;;;;;;5075897;28;20109;-53
2022/03/05 03:12:42;;;;;;;198.35;101.25;;;1.00;99.90;;;;;;5075750;28;20107;-53
2022/03/05 03:15:10;;;;;;;216.63;106.88;;;0.90;99.90;;;;;;5075623;28;20109;-53
2022/03/05 03:17:43;;;;;;;223.23;107.13;;;0.70;99.90;;;;;;5075566;28;20393;-53
2022/03/05 03:20:11;;;;;;;237.80;110.13;;;0.70;99.90;;;;;;5075310;28;20059;-53
2022/03/05 03:22:37;;;;;;;308.30;125.47;;;0.70;99.90;;;;;;5075054;28;20090;-53
2022/03/05 03:25:06;;;;;;;232.85;107.90;;;0.80;99.90;;;;;;5065471;28;20384;-53
2022/03/05 03:27:33;;;;;;;226.13;107.05;;;0.90;99.90;;;;;;5055509;28;20029;-53
2022/03/05 03:29:59;;;;;;;221.95;107.20;;;0.90;99.90;;;;;;5055484;28;20029;-53
2022/03/05 03:32:25;;;;;;;235.20;106.05;;;0.80;99.90;;;;;;5055540;28;20111;-53
2022/03/05 03:34:51;;;;;;;242.68;113.95;;;0.80;99.90;;;;;;5055678;28;20040;-53
2022/03/05 03:37:17;;;;;;;257.40;112.90;;;0.80;99.90;;;;;;5055399;28;20359;-53
2022/03/05 03:39:45;;;;;;;246.77;114.30;;;0.60;99.90;;;;;;5055386;28;20036;-53
2022/03/05 03:42:11;;;;;;;244.25;111.47;;;0.40;99.90;;;;;;5055257;28;20044;-53
2022/03/05 03:44:37;;;;;;;255.40;114.88;;;0.30;99.90;;;;;;5055097;28;20029;-53
2022/03/05 03:47:06;;;;;;;249.15;112.78;;;0.40;99.90;;;;;;5055128;28;20425;-53
2022/03/05 03:49:35;;;;;;;297.60;122.28;;;0.40;99.90;;;;;;5055127;28;20040;-53
2022/03/05 03:52:01;;;;;;;275.42;117.55;;;0.40;99.90;;;;;;5054839;28;20032;-53
2022/03/05 03:54:28;;;;;;;271.77;117.72;;;0.40;99.90;;;;;;5055088;28;20463;-53
2022/03/05 03:56:55;;;;;;;266.35;116.15;;;0.30;99.90;;;;;;5055180;28;20037;-53
2022/03/05 03:59:21;;;;;;;261.92;114.28;;;0.20;99.90;;;;;;5055338;28;20095;-53
2022/03/05 04:01:47;;;;;;;230.23;106.35;;;0.20;99.90;;;;;;5054793;28;20041;-53
2022/03/05 04:04:13;;;;;;;244.90;111.55;;;0.30;99.90;;;;;;5054666;28;20079;-53
2022/03/05 04:09:24;;;;;;;262.40;111.88;;;0.20;99.90;;;;;;5054671;28;20036;-53
2022/03/05 04:11:51;;;;;;;247.90;110.80;;;0.10;99.90;;;;;;5054743;28;20342;-53
2022/03/05 04:14:17;;;;;;;238.93;109.18;;;0.00;99.90;;;;;;5054609;28;20028;-53
2022/03/05 04:16:47;;;;;;;233.85;106.75;;;0.10;99.90;;;;;;5054681;28;20362;-53
2022/03/05 04:19:13;;;;;;;231.95;108.78;;;0.10;99.90;;;;;;5054565;28;20143;-53
2022/03/05 04:21:43;;;;;;;240.07;107.57;;;0.00;99.90;;;;;;5054614;28;20060;-53
2022/03/05 04:24:09;;;;;;;234.20;106.95;;;-0.10;99.90;;;;;;5056123;28;20486;-53
2022/03/05 04:26:38;;;;;;;230.82;107.78;;;-0.10;99.90;;;;;;5074380;28;20056;-53
2022/03/05 04:29:08;;;;;;;236.07;106.20;;;-0.20;99.90;;;;;;5074476;28;20055;-53
2022/03/05 04:31:41;;;;;;;234.30;109.18;;;-0.20;99.90;;;;;;5074297;28;20036;-53
2022/03/05 04:34:07;;;;;;;247.40;108.57;;;-0.20;99.90;;;;;;5074311;28;20035;-53
2022/03/05 04:36:34;;;;;;;221.90;106.63;;;-0.30;99.90;;;;;;5074353;28;20050;-53
2022/03/05 04:39:00;;;;;;;220.85;102.90;;;-0.40;99.90;;;;;;5074723;28;20060;-53
2022/03/05 04:41:26;;;;;;;221.82;102.05;;;-0.30;99.90;;;;;;5074569;28;20029;-53
2022/03/05 04:43:52;;;;;;;226.00;105.20;;;-0.30;99.90;;;;;;5074197;28;20031;-53
2022/03/05 04:46:18;;;;;;;223.63;104.55;;;-0.40;99.90;;;;;;5074203;28;20410;-53
2022/03/05 04:48:45;;;;;;;220.48;107.05;;;-0.30;99.90;;;;;;5074459;28;20389;-53
2022/03/05 04:51:12;;;;;;;234.43;108.78;;;-0.30;99.90;;;;;;5074379;28;20083;-53
2022/03/05 04:53:39;;;;;;;237.15;110.53;;;-0.30;99.90;;;;;;5074181;28;20055;-53
2022/03/05 04:56:05;;;;;;;247.27;112.20;;;-0.30;99.90;;;;;;5074104;28;20032;-53
2022/03/05 04:58:31;;;;;;;299.55;130.38;;;-0.20;99.90;;;;;;5074310;28;20094;-53
2022/03/05 05:00:57;;;;;;;314.17;136.95;;;-0.20;99.90;;;;;;5074298;28;20028;-53
2022/03/05 05:03:27;;;;;;;302.70;130.15;;;-0.10;99.90;;;;;;5073919;28;20397;-53
2022/03/05 05:05:53;;;;;;;287.65;127.82;;;-0.10;99.90;;;;;;5074246;28;20115;-53
2022/03/05 05:08:19;;;;;;;284.02;123.72;;;-0.20;99.90;;;;;;5074076;28;20087;-53
2022/03/05 05:10:45;;;;;;;280.45;124.18;;;-0.10;99.90;;;;;;5073879;28;20390;-53
2022/03/05 05:13:15;;;;;;;282.15;124.95;;;-0.10;99.90;;;;;;5074019;28;20508;-53
2022/03/05 05:15:41;;;;;;;259.50;117.65;;;-0.10;99.90;;;;;;5074076;28;20145;-53
2022/03/05 05:18:07;;;;;;;257.20;117.95;;;-0.20;99.90;;;;;;5073734;28;20064;-53
2022/03/05 05:20:34;;;;;;;289.83;134.57;;;-0.20;99.90;;;;;;5073904;28;20029;-53
2022/03/05 05:23:04;;;;;;;280.17;132.65;;;-0.10;99.90;;;;;;5073875;28;20033;-53
2022/03/05 05:25:30;;;;;;;305.35;134.95;;;-0.10;99.90;;;;;;5073851;28;20051;-53
2022/03/05 05:27:56;;;;;;;258.17;119.15;;;-0.10;99.90;;;;;;5073912;28;20052;-53
2022/03/05 05:30:22;;;;;;;306.83;136.55;;;0.00;99.90;;;;;;5073742;28;20025;-53
2022/03/05 05:32:49;;;;;;;319.52;142.02;;;0.10;99.90;;;;;;5073789;28;20031;-53
2022/03/05 05:35:16;;;;;;;348.10;146.98;;;0.10;99.90;;;;;;5074037;28;20028;-53
2022/03/05 05:37:42;;;;;;;409.17;163.93;;;0.10;99.90;;;;;;5073823;28;20115;-53
2022/03/05 05:40:09;;;;;;;412.50;168.82;;;0.20;99.90;;;;;;5073771;28;20521;-53
2022/03/05 05:42:36;;;;;;;259.38;117.57;;;0.30;99.90;;;;;;5073842;28;20131;-53
2022/03/05 05:45:03;;;;;;;296.88;130.70;;;0.30;99.90;;;;;;5073931;28;20064;-53
2022/03/05 05:47:29;;;;;;;335.98;139.07;;;0.30;99.90;;;;;;5076114;28;20032;-53
2022/03/05 05:49:55;;;;;;;355.27;145.65;;;0.40;99.90;;;;;;5077247;28;20020;-53
2022/03/05 05:52:21;;;;;;;328.40;140.35;;;0.40;99.90;;;;;;5077091;28;20110;-53
2022/03/05 05:54:47;;;;;;;347.20;144.93;;;0.40;99.90;;;;;;5077171;28;20082;-53
2022/03/05 05:57:13;;;;;;;322.25;137.70;;;0.40;99.90;;;;;;5077280;28;20029;-53
2022/03/05 05:59:39;;;;;;;311.48;133.52;;;0.60;99.90;;;;;;5077100;28;20112;-53
2022/03/05 06:02:05;;;;;;;289.17;129.73;;;0.80;99.90;;;;;;5077065;28;20056;-53
2022/03/05 06:04:31;;;;;;;282.17;124.00;;;0.80;99.90;;;;;;5077192;28;20032;-53
2022/03/05 06:06:57;;;;;;;269.00;123.75;;;0.90;99.90;;;;;;5077005;28;20485;-53
2022/03/05 06:09:23;;;;;;;267.80;125.63;;;1.10;99.90;;;;;;5077010;28;20028;-53
2022/03/05 06:11:49;;;;;;;290.17;128.77;;;1.30;99.90;;;;;;5076919;28;20033;-53
2022/03/05 06:14:15;;;;;;;307.63;133.35;;;1.40;99.90;;;;;;5076753;28;20094;-53
2022/03/05 06:16:42;;;;;;;301.35;136.10;;;1.30;99.90;;;;;;5077173;28;20094;-53
2022/03/05 06:19:08;;;;;;;307.73;137.50;;;1.20;99.90;;;;;;5076743;28;20035;-53
2022/03/05 06:21:34;;;;;;;311.55;135.23;;;1.40;99.90;;;;;;5076726;28;20103;-53
2022/03/05 06:24:01;;;;;;;324.77;140.70;;;1.50;99.90;;;;;;5076591;28;20508;-54
2022/03/05 06:26:31;;;;;;;290.08;127.25;;;1.60;99.90;;;;;;5076759;28;20039;-53
2022/03/05 06:28:58;;;;;;;259.65;117.40;;;1.80;99.90;;;;;;5076889;28;20020;-53
2022/03/05 06:31:24;;;;;;;255.80;114.97;;;1.80;99.90;;;;;;5076480;28;20048;-53
2022/03/05 06:33:51;;;;;;;259.63;115.18;;;1.90;99.90;;;;;;5076551;28;20043;-53
2022/03/05 06:36:16;;;;;;;255.20;116.72;;;2.00;99.90;;;;;;5076581;28;20504;-53
2022/03/05 06:38:44;;;;;;;281.45;127.05;;;2.30;99.90;;;;;;5076557;28;20064;-53
2022/03/05 06:41:10;;;;;;;271.45;124.68;;;2.40;99.90;;;;;;5076427;28;20033;-53
2022/03/05 06:43:36;;;;;;;284.55;131.25;;;2.30;99.90;;;;;;5076282;28;20394;-53
2022/03/05 06:46:02;;;;;;;269.30;122.97;;;2.20;99.90;;;;;;5076292;28;20064;-53
2022/03/05 06:48:28;;;;;;;274.15;129.15;;;2.30;99.90;;;;;;5076163;28;20016;-53
2022/03/05 06:50:54;;;;;;;271.92;126.68;;;2.40;99.90;;;;;;5076144;28;20470;-53
2022/03/05 06:53:20;;;;;;;265.35;129.35;;;2.50;99.90;;;;;;5076358;28;20036;-53
2022/03/05 06:55:46;;;;;;;285.88;134.30;;;2.70;99.90;;;;;;5076245;28;20082;-53
2022/03/05 06:58:14;;;;;;;275.35;127.28;;;2.80;99.90;;;;;;5074824;28;20060;-53
2022/03/05 07:00:40;;;;;;;261.40;127.30;;;2.90;99.90;;;;;;5076201;28;20075;-54
2022/03/05 07:03:06;;;;;;;270.23;129.07;;;2.90;99.90;;;;;;5075764;28;20500;-53
2022/03/05 07:05:32;;;;;;;265.10;124.90;;;2.80;99.90;;;;;;5076077;28;20032;-53
2022/03/05 07:07:58;;;;;;;247.77;119.60;;;2.70;99.90;;;;;;5075888;28;20017;-53
2022/03/05 07:10:24;;;;;;;230.77;112.20;;;2.60;99.90;;;;;;5075845;28;20112;-54
2022/03/05 07:12:50;;;;;;;232.70;112.88;;;2.70;99.90;;;;;;5075793;28;20063;-53
2022/03/05 07:15:17;;;;;;;227.30;111.88;;;2.90;99.90;;;;;;5075846;28;20032;-53
2022/03/05 07:17:50;;;;;;;236.90;117.00;;;3.00;99.90;;;;;;5075423;28;20036;-53
2022/03/05 07:20:17;;;;;;;224.70;113.95;;;3.20;99.90;;;;;;5075967;28;20035;-53
2022/03/05 07:22:43;;;;;;;257.15;121.97;;;3.60;99.90;;;;;;5075349;28;20028;-54
2022/03/05 07:25:11;;;;;;;241.57;118.93;;;4.10;99.90;;;;;;5075300;28;20448;-54
2022/03/05 07:27:38;;;;;;;261.63;125.95;;;4.30;99.90;;;;;;5075435;28;20524;-54
2022/03/05 07:30:05;;;;;;;246.57;126.40;;;4.70;99.90;;;;;;5075184;28;20167;-54
2022/03/05 07:32:31;;;;;;;238.82;124.00;;;5.00;99.90;;;;;;5075151;28;20036;-54
2022/03/05 07:34:57;;;;;;;267.52;132.90;;;5.20;99.90;;;;;;5075552;28;20418;-54
2022/03/05 07:37:23;;;;;;;252.57;130.80;;;5.10;99.90;;;;;;5075219;28;20039;-54
2022/03/05 07:39:49;;;;;;;283.80;136.75;;;5.60;99.90;;;;;;5075283;28;20032;-54
2022/03/05 07:42:15;;;;;;;289.23;142.32;;;6.00;99.90;;;;;;5075124;28;20060;-54
2022/03/05 07:44:41;;;;;;;260.42;132.20;;;6.40;99.90;;;;;;5057169;28;20524;-54
2022/03/05 07:47:07;;;;;;;267.55;131.98;;;6.80;99.90;;;;;;5075005;28;20147;-54
2022/03/05 07:49:33;;;;;;;266.42;135.15;;;7.00;99.90;;;;;;5075060;28;20034;-54
2022/03/05 07:51:59;;;;;;;281.85;141.75;;;7.10;99.90;;;;;;5075060;28;20087;-54
2022/03/05 07:54:27;;;;;;;264.42;133.32;;;6.90;99.90;;;;;;5074808;28;20028;-54
2022/03/05 07:56:53;;;;;;;256.98;134.88;;;7.10;99.90;;;;;;5075029;28;20037;-54
2022/03/05 07:59:20;;;;;;;251.63;132.23;;;7.30;99.90;;;;;;5074726;28;20099;-54
2022/03/05 08:01:46;;;;;;;257.00;136.60;;;7.10;99.90;;;;;;5074661;28;20035;-54
2022/03/05 08:04:12;;;;;;;235.40;124.38;;;7.10;99.90;;;;;;5074805;28;20040;-54
2022/03/05 08:06:38;;;;;;;227.15;118.43;;;7.20;99.90;;;;;;5074452;28;20027;-54
2022/03/05 08:09:04;;;;;;;254.88;134.45;;;7.60;99.90;;;;;;5074379;28;20020;-54
2022/03/05 08:11:30;;;;;;;252.95;130.77;;;8.10;99.90;;;;;;5074509;28;20024;-54
2022/03/05 08:13:56;;;;;;;237.35;129.35;;;7.90;99.90;;;;;;5074598;28;20029;-54
2022/03/05 08:16:22;;;;;;;224.52;120.10;;;8.30;99.90;;;;;;5074662;28;20539;-54
2022/03/05 08:18:48;;;;;;;251.48;130.30;;;8.10;99.90;;;;;;5074473;28;20028;-54
2022/03/05 08:21:14;;;;;;;247.35;127.60;;;7.80;99.90;;;;;;5074619;28;20028;-54
2022/03/05 08:23:40;;;;;;;255.88;136.20;;;7.70;99.90;;;;;;5074323;28;20029;-54
2022/03/05 08:26:10;;;;;;;268.30;140.05;;;7.40;99.90;;;;;;5074390;28;20055;-54
2022/03/05 08:28:37;;;;;;;259.33;141.27;;;7.10;99.90;;;;;;5074385;28;20616;-54
2022/03/05 08:31:03;;;;;;;252.27;136.30;;;6.70;99.90;;;;;;5074259;28;20028;-54
2022/03/05 08:33:29;;;;;;;245.98;138.73;;;6.80;99.90;;;;;;5074534;28;20028;-54
2022/03/05 08:35:56;;;;;;;234.82;128.43;;;7.00;99.90;;;;;;5074415;28;20039;-54
2022/03/05 08:38:22;;;;;;;238.05;127.93;;;7.10;99.90;;;;;;5074327;28;20032;-54
2022/03/05 08:40:48;;;;;;;240.73;130.02;;;7.50;99.90;;;;;;5074377;28;20028;-54
2022/03/05 08:43:14;;;;;;;218.77;118.55;;;7.90;99.90;;;;;;5074169;28;20090;-54
2022/03/05 08:45:40;;;;;;;197.00;110.88;;;8.30;99.90;;;;;;5074386;28;20021;-54
2022/03/05 08:48:06;;;;;;;206.55;111.50;;;8.20;99.90;;;;;;5074276;28;20031;-54
2022/03/05 08:50:35;;;;;;;204.93;109.03;;;8.00;99.00;;;;;;5074193;28;20027;-54
2022/03/05 08:53:02;;;;;;;182.98;105.53;;;8.60;99.90;;;;;;5074384;28;20332;-54
2022/03/05 08:55:28;;;;;;;182.50;102.30;;;9.10;96.20;;;;;;5073865;28;20052;-54
2022/03/05 08:57:54;;;;;;;190.60;101.85;;;9.50;96.30;;;;;;5073969;28;20040;-54
2022/03/05 09:00:20;;;;;;;198.80;106.90;;;10.10;94.90;;;;;;5074244;28;20033;-54
2022/03/05 09:02:47;;;;;;;210.48;115.80;;;10.50;93.50;;;;;;5074231;28;20024;-54
2022/03/05 09:05:14;;;;;;;203.30;107.72;;;10.60;93.40;;;;;;5074181;28;20032;-54
2022/03/05 09:07:42;;;;;;;171.57;94.97;;;10.90;91.90;;;;;;5074214;28;20060;-54
2022/03/05 09:10:08;;;;;;;190.30;100.95;;;10.80;88.70;;;;;;5073859;28;20029;-54
2022/03/05 09:12:34;;;;;;;182.23;103.65;;;10.80;91.60;;;;;;5073982;28;20028;-54
2022/03/05 09:15:01;;;;;;;175.02;95.93;;;10.20;92.00;;;;;;5074038;28;20040;-54
2022/03/05 09:17:27;;;;;;;143.98;82.88;;;9.80;93.40;;;;;;5073905;28;20449;-54
2022/03/05 09:19:53;;;;;;;174.82;96.05;;;9.60;90.60;;;;;;5073803;28;20036;-54
2022/03/05 09:22:20;;;;;;;170.63;93.32;;;8.70;94.50;;;;;;5076145;28;20043;-54
2022/03/05 09:24:46;;;;;;;166.35;91.90;;;8.90;95.70;;;;;;5077680;28;20041;-54
2022/03/05 09:27:13;;;;;;;141.30;78.72;;;8.90;95.70;;;;;;5077741;28;20474;-54
2022/03/05 09:29:39;;;;;;;144.32;79.40;;;9.10;93.00;;;;;;5077645;28;20020;-54
2022/03/05 09:32:05;;;;;;;147.90;85.32;;;9.50;92.80;;;;;;5077599;28;20525;-54
2022/03/05 09:34:31;;;;;;;147.07;85.65;;;9.50;92.70;;;;;;5077616;28;20052;-54
2022/03/05 09:36:58;;;;;;;162.05;92.82;;;9.60;93.20;;;;;;5077938;28;20025;-54
2022/03/05 09:39:24;;;;;;;170.30;98.25;;;9.70;93.60;;;;;;5077523;28;20390;-54
2022/03/05 09:41:51;;;;;;;171.95;95.78;;;9.40;94.50;;;;;;5077511;28;20032;-54
2022/03/05 09:44:17;;;;;;;167.93;95.47;;;9.50;93.40;;;;;;5077494;28;20503;-54
2022/03/05 09:46:44;;;;;;;162.02;92.32;;;9.40;93.60;;;;;;5077399;28;20071;-54
2022/03/05 09:49:10;;;;;;;159.68;86.65;;;9.50;94.30;;;;;;5077298;28;20043;-54
2022/03/05 09:51:36;;;;;;;83.75;44.03;;;9.60;92.10;;;;;;5077195;28;20462;-54
2022/03/05 09:54:03;;;;;;;61.00;33.90;;;9.20;79.50;;;;;;5077178;28;20067;-54
2022/03/05 09:56:29;;;;;;;61.22;34.65;;;9.10;78.80;;;;;;5077084;28;20040;-54
2022/03/05 09:58:56;;;;;;;68.60;36.80;;;9.00;73.90;;;;;;5077085;28;20029;-54
2022/03/05 10:01:22;;;;;;;64.60;33.97;;;9.00;74.50;;;;;;5077268;28;20038;-54
2022/03/05 10:03:51;;;;;;;51.22;31.30;;;9.40;67.30;;;;;;5077116;28;20039;-54
2022/03/05 10:06:19;;;;;;;58.83;33.15;;;9.80;64.20;;;;;;5076928;28;20051;-54
2022/03/05 10:08:47;;;;;;;51.83;29.95;;;10.20;63.20;;;;;;5077125;28;20033;-54
2022/03/05 10:11:13;;;;;;;58.70;31.52;;;10.60;56.60;;;;;;5074042;28;20037;-54
2022/03/05 10:13:41;;;;;;;53.30;31.30;;;10.10;54.70;;;;;;5056947;28;20053;-54
2022/03/05 10:16:24;;;;;;;60.13;33.92;;;9.70;57.90;;;;;;5056883;28;20029;-54
2022/03/05 10:18:50;;;;;;;60.78;34.58;;;9.20;67.60;;;;;;5056622;28;20083;-54
2022/03/05 10:21:17;;;;;;;63.50;34.30;;;9.00;68.80;;;;;;5056840;28;20033;-54
2022/03/05 10:23:47;;;;;;;67.03;35.35;;;8.70;71.10;;;;;;5056636;28;20485;-54
2022/03/05 10:26:22;;;;;;;62.13;34.45;;;8.40;68.00;;;;;;5056501;28;20056;-54
2022/03/05 10:28:48;;;;;;;63.00;34.83;;;8.30;71.00;;;;;;5056579;28;20538;-54
2022/03/05 10:31:14;;;;;;;57.67;33.15;;;8.10;76.40;;;;;;5056292;28;20068;-54
2022/03/05 10:33:47;;;;;;;59.15;34.35;;;7.90;68.80;;;;;;5056203;28;20029;-54
2022/03/05 10:36:20;;;;;;;59.08;33.17;;;7.80;75.70;;;;;;5056460;28;20041;-54
2022/03/05 10:38:56;;;;;;;55.80;32.55;;;7.70;78.70;;;;;;5056782;28;20033;-54
2022/03/05 10:41:35;;;;;;;55.58;30.40;;;7.50;82.10;;;;;;5056382;28;20037;-54
2022/03/05 10:44:06;;;;;;;52.15;29.15;;;7.40;78.40;;;;;;5056275;28;20041;-53
2022/03/05 10:46:40;;;;;;;47.30;27.42;;;7.30;79.30;;;;;;5056424;28;20036;-54
2022/03/05 10:49:08;;;;;;;49.85;28.52;;;7.30;77.90;;;;;;5056310;28;20036;-53
2022/03/05 10:51:34;;;;;;;46.97;29.23;;;7.30;83.00;;;;;;5056114;28;20021;-53
2022/03/05 10:54:00;;;;;;;48.22;28.20;;;7.30;83.80;;;;;;5056204;28;20029;-53
2022/03/05 10:56:34;;;;;;;53.63;28.05;;;7.20;78.50;;;;;;5056220;28;20401;-54
2022/03/05 10:59:11;;;;;;;50.00;28.85;;;7.20;82.70;;;;;;5056243;28;20027;-53
2022/03/05 11:01:42;;;;;;;46.90;27.60;;;7.30;88.70;;;;;;5056185;28;20040;-53
2022/03/05 11:04:10;;;;;;;49.28;28.27;;;7.40;85.90;;;;;;5055810;28;20501;-53
2022/03/05 11:06:38;;;;;;;46.90;28.73;;;7.40;79.50;;;;;;5056132;28;20037;-54
2022/03/05 11:09:06;;;;;;;63.63;35.65;;;7.40;80.00;;;;;;5055828;28;20029;-53
2022/03/05 11:11:34;;;;;;;73.40;38.17;;;7.40;78.50;;;;;;5055699;28;20036;-54
2022/03/05 11:14:01;;;;;;;53.38;30.50;;;7.50;82.70;;;;;;5055819;28;20032;-54
2022/03/05 11:16:27;;;;;;;52.08;28.98;;;7.70;74.90;;;;;;5055705;28;20033;-54
2022/03/05 11:18:54;;;;;;;50.15;28.52;;;7.90;80.80;;;;;;5055500;28;20037;-54
2022/03/05 11:21:19;;;;;;;49.80;28.10;;;8.70;87.60;;;;;;5055674;28;20045;-54
2022/03/05 11:23:46;;;;;;;60.13;31.27;;;9.50;78.40;;;;;;5055479;28;20387;-54
2022/03/05 11:26:13;;;;;;;63.42;33.55;;;10.10;68.30;;;;;;5055502;28;20119;-54
2022/03/05 11:28:45;;;;;;;75.80;38.42;;;10.60;61.90;;;;;;5055525;28;20029;-54
2022/03/05 11:31:18;;;;;;;68.13;36.05;;;10.80;57.00;;;;;;5055487;28;20518;-54
2022/03/05 11:33:45;;;;;;;52.75;29.58;;;11.90;59.20;;;;;;5055580;28;20542;-54
2022/03/05 11:36:31;;;;;;;60.38;34.53;;;12.10;50.80;;;;;;5055169;28;20029;-54
2022/03/05 11:39:07;;;;;;;59.92;30.52;;;12.30;49.10;;;;;;5055358;28;20123;-54
2022/03/05 11:41:47;;;;;;;47.15;29.63;;;12.10;46.60;;;;;;5037462;28;20044;-54
2022/03/05 11:44:15;;;;;;;53.43;31.93;;;12.00;49.60;;;;;;5054850;28;20039;-54
2022/03/05 11:46:42;;;;;;;46.65;28.05;;;12.60;49.20;;;;;;5054967;28;20482;-54
2022/03/05 11:49:12;;;;;;;51.42;29.35;;;13.20;46.50;;;;;;5055165;28;20037;-54
2022/03/05 11:51:51;;;;;;;60.17;34.45;;;13.30;44.20;;;;;;5055031;28;20029;-54
2022/03/05 11:54:19;;;;;;;51.13;31.48;;;13.10;41.70;;;;;;5054984;28;20032;-54
2022/03/05 11:57:10;;;;;;;54.40;31.60;;;12.60;43.00;;;;;;5054997;28;20024;-54
2022/03/05 11:59:42;;;;;;;74.80;39.95;;;12.30;44.90;;;;;;5054721;28;20075;-54
2022/03/05 12:02:09;;;;;;;52.08;31.02;;;12.50;43.40;;;;;;5054796;28;20037;-54
2022/03/05 12:04:43;;;;;;;68.30;33.17;;;12.40;42.40;;;;;;5054623;28;20565;-54
2022/03/05 12:07:13;;;;;;;57.75;33.20;;;12.70;43.80;;;;;;5054670;28;20104;-54
2022/03/05 12:09:54;;;;;;;51.27;31.73;;;12.70;41.50;;;;;;5054775;28;20033;-54
2022/03/05 12:12:20;;;;;;;53.63;29.90;;;13.50;44.50;;;;;;5054665;28;20025;-54
2022/03/05 12:15:01;;;;;;;51.17;31.20;;;14.30;42.30;;;;;;5054977;28;20040;-54
2022/03/05 12:17:31;;;;;;;;;;;14.20;40.50;;;;;;5055073;28;20025;-54
2022/03/05 12:19:57;;;;;;;55.90;30.70;;;14.00;41.90;;;;;;5054687;28;19955;-54
2022/03/05 12:22:23;;;;;;;72.90;37.53;;;13.70;41.40;;;;;;5054424;28;20017;-54
2022/03/05 12:24:49;;;;;;;53.95;32.15;;;13.50;40.50;;;;;;5061729;28;20052;-54